createdAt,value
2018-12-15T00:01:13.437Z,101171.30
2018-12-15T00:03:43.248Z,101180.66
2018-12-15T00:06:13.464Z,101181.05
2018-12-15T00:08:43.072Z,101182.87
2018-12-15T00:11:12.616Z,101185.84
2018-12-15T00:13:42.010Z,101186.10
2018-12-15T00:16:11.308Z,101187.89
2018-12-15T00:18:40.728Z,101189.72
2018-12-15T00:21:10.109Z,101182.52
2018-12-15T00:23:39.482Z,101189.20
2018-12-15T00:26:08.802Z,101191.25
2018-12-15T00:28:38.069Z,101189.54
2018-12-15T00:31:07.255Z,101193.02
2018-12-15T00:33:36.736Z,101188.05
2018-12-15T00:36:12.450Z,101185.77
2018-12-15T00:38:41.677Z,101190.86
2018-12-15T00:41:11.380Z,101190.86
2018-12-15T00:43:40.967Z,101186.30
2018-12-15T00:46:10.492Z,101187.03
2018-12-15T00:48:39.730Z,101193.52
2018-12-15T00:51:09.093Z,101203.71
2018-12-15T00:53:38.509Z,101198.72
2018-12-15T00:56:07.780Z,101207.88
2018-12-15T00:58:36.887Z,101208.79
2018-12-15T01:01:06.331Z,101204.34
2018-12-15T01:03:35.593Z,101214.81
2018-12-15T01:06:04.841Z,101219.38
2018-12-15T01:08:34.372Z,101220.63
2018-12-15T01:11:04.055Z,101227.33
2018-12-15T01:13:33.677Z,101225.92
2018-12-15T01:16:03.720Z,101226.42
2018-12-15T01:18:33.305Z,101227.44
2018-12-15T01:21:02.624Z,101227.59
2018-12-15T01:23:31.789Z,101227.53
2018-12-15T01:26:01.037Z,101226.82
2018-12-15T01:28:31.472Z,101226.67
2018-12-15T01:31:00.903Z,101232.30
2018-12-15T01:33:30.188Z,101234.48
2018-12-15T01:35:59.579Z,101228.38
2018-12-15T01:38:28.874Z,101232.83
2018-12-15T01:40:58.131Z,101239.46
2018-12-15T01:43:27.287Z,101235.73
2018-12-15T01:45:56.684Z,101238.86
2018-12-15T01:48:25.913Z,101236.89
2018-12-15T01:50:55.210Z,101236.94
2018-12-15T01:53:24.418Z,101242.70
2018-12-15T01:55:53.736Z,101244.02
2018-12-15T01:58:22.795Z,101245.59
2018-12-15T02:00:52.295Z,101251.59
2018-12-15T02:03:21.509Z,101260.32
2018-12-15T02:05:50.775Z,101252.18
2018-12-15T02:08:20.288Z,101258.38
2018-12-15T02:10:49.475Z,101263.70
2018-12-15T02:13:18.587Z,101261.27
2018-12-15T02:15:47.864Z,101263.32
2018-12-15T02:18:17.261Z,101261.95
2018-12-15T02:20:46.751Z,101259.75
2018-12-15T02:23:16.077Z,101255.58
2018-12-15T02:25:45.276Z,101261.28
2018-12-15T02:28:14.750Z,101263.51
2018-12-15T02:30:43.982Z,101254.86
2018-12-15T02:33:13.173Z,101263.51
2018-12-15T02:35:42.684Z,101255.42
2018-12-15T02:38:12.033Z,101262.59
2018-12-15T02:40:41.388Z,101262.16
2018-12-15T02:43:10.807Z,101258.95
2018-12-15T02:45:40.194Z,101267.05
2018-12-15T02:48:09.556Z,101264.59
2018-12-15T02:50:38.759Z,101256.95
2018-12-15T02:53:08.116Z,101267.91
2018-12-15T02:55:37.409Z,101267.02
2018-12-15T02:58:06.842Z,101272.36
2018-12-15T03:00:36.226Z,101262.89
2018-12-15T03:03:05.501Z,101271.05
2018-12-15T03:05:34.779Z,101274.15
2018-12-15T03:08:04.044Z,101274.00
2018-12-15T03:10:33.367Z,101265.85
2018-12-15T03:13:02.627Z,101266.29
2018-12-15T03:15:32.026Z,101273.13
2018-12-15T03:18:01.418Z,101266.01
2018-12-15T03:20:30.663Z,101267.70
2018-12-15T03:22:59.991Z,101271.70
2018-12-15T03:25:29.164Z,101270.48
2018-12-15T03:27:58.425Z,101273.63
2018-12-15T03:30:27.696Z,101268.84
2018-12-15T03:32:57.013Z,101272.27
2018-12-15T03:35:26.161Z,101267.01
2018-12-15T03:37:55.476Z,101255.95
2018-12-15T03:40:24.552Z,101261.50
2018-12-15T03:42:53.819Z,101260.17
2018-12-15T03:45:23.032Z,101263.78
2018-12-15T03:47:56.147Z,101262.47
2018-12-15T03:50:23.622Z,101262.41
2018-12-15T03:52:52.884Z,101264.56
2018-12-15T03:55:22.084Z,101264.27
2018-12-15T03:57:51.440Z,101260.59
2018-12-15T04:00:20.719Z,101265.28
2018-12-15T04:02:50.124Z,101257.08
2018-12-15T04:05:19.544Z,101260.83
2018-12-15T04:07:48.968Z,101264.30
2018-12-15T04:10:18.271Z,101254.01
2018-12-15T04:12:47.616Z,101246.64
2018-12-15T04:15:17.045Z,101242.88
2018-12-15T04:17:46.490Z,101246.22
2018-12-15T04:20:15.580Z,101243.47
2018-12-15T04:22:44.715Z,101236.58
2018-12-15T04:25:14.092Z,101232.31
2018-12-15T04:27:43.129Z,101236.41
2018-12-15T04:30:12.464Z,101240.28
2018-12-15T04:32:45.113Z,101240.55
2018-12-15T04:35:12.993Z,101236.87
2018-12-15T04:37:43.075Z,101235.76
2018-12-15T04:40:13.168Z,101238.95
2018-12-15T04:42:42.487Z,101232.25
2018-12-15T04:45:11.781Z,101234.69
2018-12-15T04:47:41.753Z,101245.42
2018-12-15T04:50:10.927Z,101237.01
2018-12-15T04:52:40.085Z,101236.98
2018-12-15T04:55:09.450Z,101229.89
2018-12-15T04:57:39.790Z,101236.23
2018-12-15T05:00:09.273Z,101239.09
2018-12-15T05:02:43.849Z,101236.63
2018-12-15T05:05:09.731Z,101239.33
2018-12-15T05:07:39.076Z,101232.88
2018-12-15T05:10:08.336Z,101238.05
2018-12-15T05:12:37.782Z,101237.45
2018-12-15T05:15:07.236Z,101233.73
2018-12-15T05:17:36.471Z,101235.82
2018-12-15T05:20:07.362Z,101241.78
2018-12-15T05:22:36.805Z,101243.87
2018-12-15T05:25:06.680Z,101242.27
2018-12-15T05:27:35.993Z,101249.97
2018-12-15T05:30:05.817Z,101247.30
2018-12-15T05:32:35.164Z,101250.55
2018-12-15T05:35:04.397Z,101255.53
2018-12-15T05:37:33.643Z,101256.94
2018-12-15T05:40:03.011Z,101253.41
2018-12-15T05:42:32.317Z,101253.17
2018-12-15T05:45:01.435Z,101251.05
2018-12-15T05:47:31.140Z,101247.12
2018-12-15T05:50:00.758Z,101251.45
2018-12-15T05:52:30.370Z,101255.36
2018-12-15T05:54:59.583Z,101250.56
2018-12-15T05:57:28.961Z,101249.48
2018-12-15T05:59:58.128Z,101246.72
2018-12-15T06:02:28.141Z,101255.99
2018-12-15T06:04:58.979Z,101256.25
2018-12-15T06:07:28.387Z,101258.59
2018-12-15T06:09:57.996Z,101261.03
2018-12-15T06:12:27.391Z,101253.92
2018-12-15T06:14:56.572Z,101260.20
2018-12-15T06:17:25.721Z,101263.67
2018-12-15T06:19:54.953Z,101256.27
2018-12-15T06:22:24.378Z,101264.52
2018-12-15T06:24:53.582Z,101260.31
2018-12-15T06:27:23.007Z,101265.73
2018-12-15T06:29:52.269Z,101262.05
2018-12-15T06:32:21.519Z,101252.23
2018-12-15T06:34:50.876Z,101253.80
2018-12-15T06:37:20.231Z,101245.27
2018-12-15T06:39:49.699Z,101262.94
2018-12-15T06:42:19.108Z,101249.76
2018-12-15T06:44:48.429Z,101245.23
2018-12-15T06:47:17.697Z,101248.52
2018-12-15T06:49:47.182Z,101253.02
2018-12-15T06:52:16.404Z,101251.12
2018-12-15T06:54:46.063Z,101252.94
2018-12-15T06:57:15.320Z,101252.45
2018-12-15T06:59:44.656Z,101251.34
2018-12-15T07:02:14.206Z,101251.29
2018-12-15T07:04:43.799Z,101257.64
2018-12-15T07:07:13.121Z,101260.61
2018-12-15T07:09:42.625Z,101253.45
2018-12-15T07:12:12.116Z,101255.41
2018-12-15T07:14:41.497Z,101257.46
2018-12-15T07:17:10.796Z,101257.64
2018-12-15T07:19:40.167Z,101262.10
2018-12-15T07:22:09.460Z,101262.50
2018-12-15T07:24:38.843Z,101265.16
2018-12-15T07:27:08.064Z,101262.75
2018-12-15T07:29:37.214Z,101266.84
2018-12-15T07:32:06.508Z,101270.63
2018-12-15T07:34:35.971Z,101268.83
2018-12-15T07:37:05.257Z,101272.36
2018-12-15T07:39:34.187Z,101276.72
2018-12-15T07:42:03.372Z,101273.06
2018-12-15T07:44:32.948Z,101272.69
2018-12-15T07:47:02.417Z,101274.88
2018-12-15T07:49:31.723Z,101279.95
2018-12-15T07:52:01.315Z,101278.06
2018-12-15T07:54:30.694Z,101275.22
2018-12-15T07:56:59.812Z,101276.81
2018-12-15T07:59:29.091Z,101274.88
2018-12-15T08:01:58.430Z,101274.48
2018-12-15T08:04:27.650Z,101272.31
2018-12-15T08:06:57.063Z,101269.09
2018-12-15T08:09:26.496Z,101260.80
2018-12-15T08:12:00.715Z,101263.08
2018-12-15T08:14:29.888Z,101259.28
2018-12-15T08:16:59.224Z,101262.12
2018-12-15T08:19:28.584Z,101261.45
2018-12-15T08:21:57.827Z,101258.76
2018-12-15T08:24:27.262Z,101260.77
2018-12-15T08:26:56.482Z,101265.51
2018-12-15T08:29:25.879Z,101262.19
2018-12-15T08:31:55.078Z,101264.30
2018-12-15T08:34:24.412Z,101265.80
2018-12-15T08:36:53.584Z,101273.38
2018-12-15T08:39:22.967Z,101276.81
2018-12-15T08:41:52.240Z,101277.27
2018-12-15T08:44:21.502Z,101281.66
2018-12-15T08:46:50.640Z,101280.23
2018-12-15T08:49:19.934Z,101285.59
2018-12-15T08:51:49.244Z,101280.17
2018-12-15T08:54:18.452Z,101279.02
2018-12-15T08:56:47.689Z,101279.83
2018-12-15T08:59:17.052Z,101280.84
2018-12-15T09:01:46.461Z,101280.03
2018-12-15T09:04:15.617Z,101286.38
2018-12-15T09:06:44.841Z,101284.88
2018-12-15T09:09:14.023Z,101284.56
2018-12-15T09:11:43.428Z,101289.91
2018-12-15T09:14:12.547Z,101282.36
2018-12-15T09:16:41.901Z,101283.87
2018-12-15T09:19:11.602Z,101285.18
2018-12-15T09:21:41.181Z,101283.95
2018-12-15T09:24:10.228Z,101286.42
2018-12-15T09:26:39.504Z,101291.95
2018-12-15T09:29:08.677Z,101284.48
2018-12-15T09:31:37.981Z,101286.27
2018-12-15T09:34:07.391Z,101287.36
2018-12-15T09:36:36.917Z,101288.50
2018-12-15T09:39:07.251Z,101293.06
2018-12-15T09:41:36.455Z,101296.59
2018-12-15T09:44:05.606Z,101292.66
2018-12-15T09:46:35.124Z,101294.37
2018-12-15T09:49:04.512Z,101287.81
2018-12-15T09:51:33.858Z,101279.84
2018-12-15T09:54:03.221Z,101287.31
2018-12-15T09:56:32.533Z,101298.08
2018-12-15T09:59:01.822Z,101287.92
2018-12-15T10:01:31.008Z,101290.68
2018-12-15T10:04:00.179Z,101284.39
2018-12-15T10:06:29.471Z,101294.27
2018-12-15T10:08:58.648Z,101287.87
2018-12-15T10:11:28.156Z,101284.58
2018-12-15T10:13:57.520Z,101288.84
2018-12-15T10:16:26.831Z,101293.06
2018-12-15T10:18:56.200Z,101286.27
2018-12-15T10:21:25.539Z,101286.21
2018-12-15T10:23:54.964Z,101286.91
2018-12-15T10:26:24.276Z,101279.03
2018-12-15T10:28:53.497Z,101278.47
2018-12-15T10:31:27.788Z,101273.17
2018-12-15T10:33:56.879Z,101266.02
2018-12-15T10:36:26.310Z,101262.27
2018-12-15T10:38:55.670Z,101256.55
2018-12-15T10:41:25.031Z,101245.94
2018-12-15T10:43:54.415Z,101246.80
2018-12-15T10:46:23.853Z,101245.59
2018-12-15T10:48:53.259Z,101240.13
2018-12-15T10:51:23.549Z,101233.47
2018-12-15T10:53:52.906Z,101238.98
2018-12-15T10:56:22.238Z,101238.37
2018-12-15T10:58:51.771Z,101236.81
2018-12-15T11:01:22.717Z,101235.95
2018-12-15T11:03:52.213Z,101235.22
2018-12-15T11:06:21.548Z,101228.62
2018-12-15T11:08:50.939Z,101235.52
2018-12-15T11:11:20.240Z,101231.52
2018-12-15T11:16:31.752Z,101222.67
2018-12-15T11:19:01.558Z,101221.14
2018-12-15T11:21:30.871Z,101220.91
2018-12-15T11:24:00.327Z,101215.75
2018-12-15T11:26:29.528Z,101222.78
2018-12-15T11:28:58.867Z,101218.47
2018-12-15T11:31:29.105Z,101221.19
2018-12-15T11:33:58.492Z,101205.00
2018-12-15T11:36:27.896Z,101208.54
2018-12-15T11:38:57.195Z,101201.22
2018-12-15T11:41:26.768Z,101194.38
2018-12-15T11:43:56.148Z,101193.34
2018-12-15T11:46:25.407Z,101196.88
2018-12-15T11:48:54.766Z,101196.39
2018-12-15T11:51:24.087Z,101193.86
2018-12-15T11:53:53.553Z,101189.20
2018-12-15T11:56:22.867Z,101189.53
2018-12-15T11:58:52.351Z,101185.19
2018-12-15T12:01:21.707Z,101175.38
2018-12-15T12:03:51.016Z,101174.67
2018-12-15T12:06:20.507Z,101174.81
2018-12-15T12:08:50.019Z,101170.98
2018-12-15T12:11:19.342Z,101172.24
2018-12-15T12:13:48.797Z,101158.04
2018-12-15T12:16:18.007Z,101160.03
2018-12-15T12:18:47.195Z,101152.07
2018-12-15T12:21:16.984Z,101146.28
2018-12-15T12:23:46.232Z,101153.13
2018-12-15T12:26:15.629Z,101146.63
2018-12-15T12:28:45.104Z,101148.34
2018-12-15T12:31:14.328Z,101140.58
2018-12-15T12:33:43.641Z,101137.56
2018-12-15T12:36:12.858Z,101137.39
2018-12-15T12:38:42.253Z,101124.55
2018-12-15T12:41:11.687Z,101124.75
2018-12-15T12:43:41.323Z,101121.55
2018-12-15T12:46:10.776Z,101120.79
2018-12-15T12:48:40.198Z,101121.64
2018-12-15T12:51:09.707Z,101125.52
2018-12-15T12:53:39.027Z,101122.41
2018-12-15T12:56:08.315Z,101120.30
2018-12-15T12:58:37.459Z,101117.45
2018-12-15T13:01:06.871Z,101120.22
2018-12-15T13:03:36.058Z,101120.04
2018-12-15T13:06:05.378Z,101122.61
2018-12-15T13:08:34.669Z,101121.81
2018-12-15T13:11:04.104Z,101116.66
2018-12-15T13:13:33.922Z,101119.76
2018-12-15T13:16:03.529Z,101113.59
2018-12-15T13:18:32.895Z,101114.79
2018-12-15T13:21:02.403Z,101107.78
2018-12-15T13:23:31.673Z,101111.89
2018-12-15T13:26:01.020Z,101118.80
2018-12-15T13:28:30.386Z,101119.05
2018-12-15T13:31:00.030Z,101115.44
2018-12-15T13:33:34.239Z,101115.27
2018-12-15T13:36:03.698Z,101119.19
2018-12-15T13:38:32.982Z,101121.24
2018-12-15T13:41:13.980Z,101125.23
2018-12-15T13:43:43.047Z,101116.34
2018-12-15T13:46:14.075Z,101115.59
2018-12-15T13:48:43.979Z,101123.59
2018-12-15T13:51:13.476Z,101123.93
2018-12-15T13:53:42.896Z,101117.42
2018-12-15T13:56:12.244Z,101119.20
2018-12-15T13:58:42.085Z,101121.30
2018-12-15T14:01:11.397Z,101123.12
2018-12-15T14:03:40.794Z,101122.81
2018-12-15T14:06:10.088Z,101129.48
2018-12-15T14:08:39.479Z,101124.81
2018-12-15T14:11:08.764Z,101132.31
2018-12-15T14:13:38.099Z,101129.00
2018-12-15T14:16:07.315Z,101131.86
2018-12-15T14:18:36.567Z,101131.45
2018-12-15T14:21:05.724Z,101131.17
2018-12-15T14:23:34.936Z,101135.50
2018-12-15T14:26:05.575Z,101125.19
2018-12-15T14:28:35.071Z,101127.41
2018-12-15T14:31:04.189Z,101124.01
2018-12-15T14:33:33.387Z,101123.98
2018-12-15T14:36:02.666Z,101111.41
2018-12-15T14:38:31.908Z,101112.58
2018-12-15T14:41:01.443Z,101111.86
2018-12-15T14:43:30.831Z,101103.65
2018-12-15T14:46:00.145Z,101099.86
2018-12-15T14:48:29.533Z,101087.57
2018-12-15T14:50:58.636Z,101086.88
2018-12-15T14:53:27.900Z,101078.84
2018-12-15T14:55:56.966Z,101084.03
2018-12-15T14:58:26.348Z,101085.86
2018-12-15T15:00:55.615Z,101085.28
2018-12-15T15:03:24.824Z,101080.23
2018-12-15T15:05:54.181Z,101076.52
2018-12-15T15:08:23.519Z,101072.69
2018-12-15T15:10:52.810Z,101061.61
2018-12-15T15:13:21.987Z,101069.48
2018-12-15T15:15:51.211Z,101064.88
2018-12-15T15:18:20.579Z,101061.63
2018-12-15T15:20:49.879Z,101060.16
2018-12-15T15:23:19.125Z,101050.19
2018-12-15T15:25:48.333Z,101054.24
2018-12-15T15:28:17.615Z,101050.77
2018-12-15T15:30:46.857Z,101049.85
2018-12-15T15:33:16.102Z,101048.16
2018-12-15T15:35:45.489Z,101047.28
2018-12-15T15:38:14.539Z,101053.23
2018-12-15T15:40:43.976Z,101043.19
2018-12-15T15:43:13.216Z,101034.41
2018-12-15T15:45:42.447Z,101023.63
2018-12-15T15:48:11.753Z,101026.13
2018-12-15T15:50:40.909Z,101025.12
2018-12-15T15:53:10.128Z,101018.11
2018-12-15T15:55:39.428Z,101019.86
2018-12-15T15:58:08.565Z,101018.51
2018-12-15T16:00:37.743Z,101003.41
2018-12-15T16:03:07.012Z,101008.58
2018-12-15T16:05:36.303Z,101002.42
2018-12-15T16:08:05.432Z,100994.77
2018-12-15T16:10:35.032Z,100997.80
2018-12-15T16:13:04.943Z,100991.98
2018-12-15T16:15:34.951Z,100991.08
2018-12-15T16:18:04.215Z,100986.92
2018-12-15T16:20:33.564Z,100991.12
2018-12-15T16:23:02.792Z,100988.17
2018-12-15T16:25:32.159Z,100982.09
2018-12-15T16:28:01.445Z,100979.33
2018-12-15T16:30:30.628Z,100980.36
2018-12-15T16:33:00.081Z,100982.75
2018-12-15T16:35:29.236Z,100981.50
2018-12-15T16:37:58.588Z,100981.44
2018-12-15T16:40:27.888Z,100970.75
2018-12-15T16:42:57.149Z,100972.59
2018-12-15T16:45:26.613Z,100972.13
2018-12-15T16:47:55.871Z,100964.83
2018-12-15T16:50:24.990Z,100961.09
2018-12-15T16:52:54.353Z,100961.37
2018-12-15T16:55:23.775Z,100962.89
2018-12-15T16:57:52.988Z,100961.42
2018-12-15T17:00:22.076Z,100962.03
2018-12-15T17:02:51.425Z,100958.34
2018-12-15T17:05:20.793Z,100964.60
2018-12-15T17:07:50.359Z,100961.92
2018-12-15T17:10:19.458Z,100956.79
2018-12-15T17:12:48.895Z,100960.33
2018-12-15T17:15:18.176Z,100965.06
2018-12-15T17:17:47.589Z,100958.11
2018-12-15T17:20:16.954Z,100959.27
2018-12-15T17:22:46.548Z,100954.92
2018-12-15T17:25:16.133Z,100956.06
2018-12-15T17:27:45.400Z,100960.52
2018-12-15T17:30:14.838Z,100962.86
2018-12-15T17:32:44.126Z,100951.91
2018-12-15T17:35:13.486Z,100947.12
2018-12-15T17:37:42.836Z,100947.32
2018-12-15T17:40:12.439Z,100948.42
2018-12-15T17:42:41.648Z,100941.24
2018-12-15T17:45:11.068Z,100939.87
2018-12-15T17:47:40.289Z,100931.42
2018-12-15T17:50:10.595Z,100940.20
2018-12-15T17:52:39.810Z,100938.39
2018-12-15T17:55:09.112Z,100943.39
2018-12-15T17:57:38.425Z,100924.38
2018-12-15T18:00:10.197Z,100927.57
2018-12-15T18:02:39.531Z,100912.12
2018-12-15T18:05:09.672Z,100913.37
2018-12-15T18:07:38.856Z,100908.19
2018-12-15T18:10:09.157Z,100903.48
2018-12-15T18:12:38.491Z,100898.55
2018-12-15T18:15:08.429Z,100897.97
2018-12-15T18:17:37.599Z,100893.97
2018-12-15T18:20:08.113Z,100884.86
2018-12-15T18:22:37.308Z,100878.36
2018-12-15T18:25:06.768Z,100865.10
2018-12-15T18:27:36.043Z,100867.76
2018-12-15T18:30:06.336Z,100865.19
2018-12-15T18:32:35.540Z,100856.48
2018-12-15T18:35:04.631Z,100857.97
2018-12-15T18:37:33.768Z,100858.77
2018-12-15T18:40:02.992Z,100855.11
2018-12-15T18:42:32.223Z,100847.55
2018-12-15T18:45:01.516Z,100845.84
2018-12-15T18:47:30.747Z,100837.39
2018-12-15T18:49:59.867Z,100839.31
2018-12-15T18:52:29.228Z,100830.70
2018-12-15T18:54:58.471Z,100825.32
2018-12-15T18:57:27.859Z,100823.16
2018-12-15T18:59:57.173Z,100817.20
2018-12-15T19:02:26.548Z,100823.89
2018-12-15T19:04:55.895Z,100816.55
2018-12-15T19:07:25.022Z,100812.95
2018-12-15T19:09:54.303Z,100815.39
2018-12-15T19:12:23.524Z,100810.16
2018-12-15T19:14:52.905Z,100804.12
2018-12-15T19:17:22.109Z,100805.16
2018-12-15T19:19:51.312Z,100802.93
2018-12-15T19:22:20.659Z,100789.48
2018-12-15T19:24:50.071Z,100786.56
2018-12-15T19:27:19.332Z,100782.09
2018-12-15T19:29:48.880Z,100775.02
2018-12-15T19:32:18.172Z,100771.48
2018-12-15T19:34:52.445Z,100780.01
2018-12-15T19:37:18.631Z,100773.06
2018-12-15T19:39:47.900Z,100766.82
2018-12-15T19:42:17.275Z,100770.30
2018-12-15T19:44:46.522Z,100766.58
2018-12-15T19:47:15.836Z,100765.70
2018-12-15T19:49:45.178Z,100774.17
2018-12-15T19:52:14.522Z,100765.57
2018-12-15T19:54:43.865Z,100770.30
2018-12-15T19:57:13.127Z,100759.81
2018-12-15T19:59:42.414Z,100758.95
2018-12-15T20:02:11.609Z,100751.28
2018-12-15T20:04:40.816Z,100738.37
2018-12-15T20:07:10.128Z,100742.63
2018-12-15T20:09:39.698Z,100736.14
2018-12-15T20:12:09.015Z,100722.08
2018-12-15T20:14:38.717Z,100714.34
2018-12-15T20:17:07.884Z,100713.42
2018-12-15T20:19:37.096Z,100716.84
2018-12-15T20:22:06.288Z,100714.48
2018-12-15T20:24:35.798Z,100718.23
2018-12-15T20:27:05.201Z,100704.59
2018-12-15T20:29:34.527Z,100705.13
2018-12-15T20:32:03.989Z,100693.57
2018-12-15T20:34:33.180Z,100702.44
2018-12-15T20:37:02.556Z,100702.89
2018-12-15T20:39:31.972Z,100701.78
2018-12-15T20:42:01.145Z,100702.03
2018-12-15T20:44:30.288Z,100697.27
2018-12-15T20:46:59.864Z,100691.03
2018-12-15T20:49:29.177Z,100692.67
2018-12-15T20:51:58.447Z,100683.90
2018-12-15T20:54:27.540Z,100675.99
2018-12-15T20:56:56.684Z,100671.72
2018-12-15T20:59:26.719Z,100671.13
2018-12-15T21:01:55.943Z,100674.23
2018-12-15T21:04:25.174Z,100679.84
2018-12-15T21:06:54.592Z,100675.73
2018-12-15T21:09:23.852Z,100671.67
2018-12-15T21:11:53.123Z,100670.75
2018-12-15T21:14:22.419Z,100662.38
2018-12-15T21:16:51.528Z,100651.09
2018-12-15T21:19:20.775Z,100642.84
2018-12-15T21:21:50.171Z,100639.53
2018-12-15T21:24:19.776Z,100637.08
2018-12-15T21:26:48.927Z,100626.11
2018-12-15T21:29:18.255Z,100620.14
2018-12-15T21:31:47.577Z,100619.16
2018-12-15T21:34:16.940Z,100630.74
2018-12-15T21:36:46.123Z,100628.02
2018-12-15T21:39:15.368Z,100618.91
2018-12-15T21:41:44.633Z,100620.99
2018-12-15T21:44:13.908Z,100616.61
2018-12-15T21:46:43.359Z,100614.26
2018-12-15T21:49:12.568Z,100614.11
2018-12-15T21:51:42.079Z,100607.90
2018-12-15T21:54:11.525Z,100595.48
2018-12-15T21:56:40.960Z,100589.86
2018-12-15T21:59:10.363Z,100581.65
2018-12-15T22:01:40.979Z,100581.02
2018-12-15T22:04:10.466Z,100576.70
2018-12-15T22:06:39.780Z,100571.45
2018-12-15T22:09:09.272Z,100560.44
2018-12-15T22:11:38.632Z,100552.02
2018-12-15T22:14:08.346Z,100542.07
2018-12-15T22:16:37.741Z,100533.72
2018-12-15T22:19:07.063Z,100530.11
2018-12-15T22:21:36.455Z,100512.58
2018-12-15T22:24:06.011Z,100518.63
2018-12-15T22:26:35.364Z,100502.20
2018-12-15T22:29:04.728Z,100498.27
2018-12-15T22:31:34.555Z,100488.40
2018-12-15T22:34:03.880Z,100479.33
2018-12-15T22:36:33.339Z,100474.20
2018-12-15T22:39:02.604Z,100475.37
2018-12-15T22:41:31.863Z,100470.27
2018-12-15T22:44:01.234Z,100471.77
2018-12-15T22:46:30.527Z,100461.85
2018-12-15T22:48:59.951Z,100463.34
2018-12-15T22:51:29.020Z,100457.71
2018-12-15T22:53:58.387Z,100461.14
2018-12-15T22:56:27.845Z,100458.78
2018-12-15T22:58:57.260Z,100448.53
2018-12-15T23:01:26.553Z,100446.67
2018-12-15T23:03:55.868Z,100446.03
2018-12-15T23:06:25.300Z,100434.65
2018-12-15T23:08:54.759Z,100428.59
2018-12-15T23:11:23.945Z,100422.05
2018-12-15T23:13:53.191Z,100419.67
2018-12-15T23:16:22.593Z,100421.13
2018-12-15T23:18:51.985Z,100413.35
2018-12-15T23:21:21.172Z,100406.91
2018-12-15T23:23:50.419Z,100407.27
2018-12-15T23:26:19.627Z,100401.84
2018-12-15T23:28:48.924Z,100400.86
2018-12-15T23:31:18.332Z,100397.20
2018-12-15T23:33:47.524Z,100392.03
2018-12-15T23:36:16.923Z,100388.05
2018-12-15T23:38:46.173Z,100381.77
2018-12-15T23:41:15.475Z,100372.87
2018-12-15T23:43:44.973Z,100371.92
2018-12-15T23:46:14.260Z,100358.75
2018-12-15T23:48:43.505Z,100362.37
2018-12-15T23:51:12.715Z,100355.35
2018-12-15T23:53:41.867Z,100361.05
2018-12-15T23:56:11.310Z,100360.32
2018-12-15T23:58:40.635Z,100359.50
